KGFA

Malmstrom AFB Heliport

Great Falls, Montana, USA
TAF AMD KGFA 212211Z 2122/2302 VRB06KT 1600 -SHSN OVC007 610079 QNH2989INS TEMPO 2122/2123 8000 -SN OVC010 620109 BECMG 2123/2124 25009KT 9999 NSW BKN040 620409 QNH3005INS BECMG 2205/2206 21012G18KT 9999 FEW100 QNH3011INS BECMG 2219/2220 23015G25KT 8000 DRSN FEW100 SCT120 QNH3005INS BECMG 2300/2301 21012G18KT 9999 NSW FEW080 SCT100 QNH3004INS TX01/2220Z TNM09/2212Z
Issued Valid From Valid To
Jan-21 @ 22:11 UTC
(2 hours ago)
Jan-21 @ 22:00 UTC
(2 hours ago)
Jan-23 @ 02:00 UTC
(-1 days ago)
Expired Click to View Jan-21 @ 22:00 to Jan-21 @ 23:00
TAF AMD KGFA 212211Z 2122/2302 VRB06KT 1600 -SHSN OVC007 610079 QNH2989INS
Wind Visibility Clouds Conditions Readings Icing
Variable at 6 knots 99 miles
  • Overcast at 700' AGL
  • Light Snow
Altimeter 29.88" Hg
Pressure 1011.92 hPa
Light icing expected at 700' AGL extending to 9,700' AGL
Expired Click to View Jan-21 @ 22:00 to Jan-21 @ 23:00
TEMPO 2122/2123 8000 -SN OVC010 620109
Wind Visibility Clouds Conditions
201° at 9 knots 497 miles
  • Overcast at 1,000' AGL
  • Light Snow
Becoming Jan-21 @ 23:00 to Jan-22 @ 05:00
BECMG 2123/2124 25009KT 9999 NSW BKN040 620409 QNH3005INS
Wind Visibility Clouds Conditions Readings Icing
250° at 9 knots Greater than 6 miles
  • Broken at 4,000' AGL
Altimeter 30.06" Hg
Pressure 1017.92 hPa
Light icing in cloud expected at 4,000' AGL extending to 13,000' AGL
Becoming Jan-22 @ 05:00 to Jan-22 @ 19:00
BECMG 2205/2206 21012G18KT 9999 FEW100 QNH3011INS
Wind Visibility Clouds Conditions Readings
210° at 12 knots
 Gusting to 18 knots
Greater than 6 miles
  • Few at 10,000' AGL
Altimeter 30.12" Hg
Pressure 1019.92 hPa
Becoming Jan-22 @ 19:00 to Jan-23 @ 00:00
BECMG 2219/2220 23015G25KT 8000 DRSN FEW100 SCT120 QNH3005INS
Wind Visibility Clouds Conditions Readings
230° at 15 knots
 Gusting to 25 knots
497 miles
  • Few at 10,000' AGL
  • Scattered at 12,000' AGL
  • Low drifting
  • Snow
Altimeter 30.06" Hg
Pressure 1017.92 hPa
Becoming Jan-23 @ 00:00 to Jan-23 @ 02:00
BECMG 2300/2301 21012G18KT 9999 NSW FEW080 SCT100 QNH3004INS TX01/2220Z TNM09/2212Z
Wind Visibility Clouds Conditions Readings
210° at 12 knots
 Gusting to 18 knots
Greater than 6 miles
  • Few at 8,000' AGL
  • Scattered at 10,000' AGL
Altimeter 30.03" Hg
Pressure 1016.92 hPa
TAF AMD KGFA 212211Z 2122/2302 VRB06KT 1600 -SHSN OVC007 610079 QNH2989INS TEMPO 2122/2123 8000 -SN OVC010 620109 BECMG 2123/2124 25009KT 9999 NSW BKN040 620409 QNH3005INS BECMG 2205/2206 21012G18KT 9999 FEW100 QNH3011INS BECMG 2219/2220 23015G25KT 8000 DRSN FEW100 SCT120 QNH3005INS BECMG 2300/2301 21012G18KT 9999 NSW FEW080 SCT100 QNH3004INS TX01/2220Z TNM09/2212Z
Issued Jan-21 @ 22:11 UTC
(2 hours ago)
Valid From Jan-21 @ 22:00 UTC
(2 hours ago)
Valid To Jan-23 @ 02:00 UTC
(-1 days ago)
Jan-21 @ 22:00 - Jan-21 @ 23:00
Wind Visibility
Variable at 6 knots 99 miles
Clouds
  • Overcast at 700' AGL
Conditions
  • Light Snow
Jan-21 @ 22:00 - Jan-21 @ 23:00
Wind Visibility
201° at 9 knots 497 miles
Clouds
  • Overcast at 1,000' AGL
Conditions
  • Light Snow
Becoming Jan-21 @ 23:00 - Jan-22 @ 05:00
Wind Visibility
250° at 9 knots Greater than 6 miles
Clouds
  • Broken at 4,000' AGL
Conditions
Becoming Jan-22 @ 05:00 - Jan-22 @ 19:00
Wind Visibility
210° at 12 knots
 Gusting to 18 knots
Greater than 6 miles
Clouds
  • Few at 10,000' AGL
Conditions
Becoming Jan-22 @ 19:00 - Jan-23 @ 00:00
Wind Visibility
230° at 15 knots
 Gusting to 25 knots
497 miles
Clouds
  • Few at 10,000' AGL
  • Scattered at 12,000' AGL
Conditions
  • Low drifting
  • Snow
Becoming Jan-23 @ 00:00 - Jan-23 @ 02:00
Wind Visibility
210° at 12 knots
 Gusting to 18 knots
Greater than 6 miles
Clouds
  • Few at 8,000' AGL
  • Scattered at 10,000' AGL
Conditions